Time;durP1;ratioP1;P1;durP2;ratioP2;P2;SDS_P1;SDS_P2;PMS_P1;PMS_P2;Temp;Humidity;BMP_temperature;BMP_pressure;BME280_temperature;BME280_humidity;BME280_pressure;Samples;Min_cycle;Max_cycle;Signal;HPM_P1;HPM_P2
2023/05/22 00:00:06;;;;;;;;;;;16.40;99.90;;;;;;5127648;27;20349;-87
2023/05/22 00:02:32;;;;;;;;;;;16.40;99.90;;;;;;5137892;27;19924;-87
2023/05/22 00:04:59;;;;;;;;;;;16.50;99.90;;;;;;5126948;27;20038;-87
2023/05/22 00:07:26;;;;;;;;;;;16.50;99.90;;;;;;5140883;27;20579;-87
2023/05/22 00:09:52;;;;;;;;;;;16.50;99.90;;;;;;5115366;27;19931;-87
2023/05/22 00:12:18;;;;;;;;;;;16.50;99.90;;;;;;5125733;27;19931;-86
2023/05/22 00:14:43;;;;;;;;;;;16.50;99.90;;;;;;5121604;27;19927;-87
2023/05/22 00:17:13;;;;;;;;;;;16.50;99.90;;;;;;5139647;27;19931;-87
2023/05/22 00:19:39;;;;;;;;;;;16.60;99.90;;;;;;5149086;27;19942;-85
2023/05/22 00:22:05;;;;;;;;;;;16.50;99.90;;;;;;5134409;27;19927;-85
2023/05/22 00:24:30;;;;;;;;;;;16.60;99.90;;;;;;5143535;27;19938;-85
2023/05/22 00:26:56;;;;;;;;;;;16.50;99.90;;;;;;5141093;27;19938;-86
2023/05/22 00:29:22;;;;;;;;;;;16.50;99.90;;;;;;5141794;27;19992;-86
2023/05/22 00:31:47;;;;;;;;;;;16.50;99.90;;;;;;5146484;27;20395;-86
2023/05/22 00:34:13;;;;;;;;;;;16.50;1.00;;;;;;5129405;27;19927;-86
2023/05/22 00:36:39;;;;;;;;;;;16.40;1.00;;;;;;5127459;27;19923;-87
2023/05/22 00:39:05;;;;;;;;;;;16.40;1.00;;;;;;5146594;27;20462;-86
2023/05/22 00:41:32;;;;;;;;;;;16.40;99.90;;;;;;5122613;27;20029;-86
2023/05/22 00:43:58;;;;;;;;;;;16.40;99.90;;;;;;5129988;27;20435;-86
2023/05/22 00:46:24;;;;;;;;;;;16.30;99.90;;;;;;5124983;27;19966;-87
2023/05/22 00:48:51;;;;;;;;;;;16.30;99.90;;;;;;5126343;27;19954;-87
2023/05/22 00:51:18;;;;;;;;;;;16.30;99.90;;;;;;5149737;27;20436;-86
2023/05/22 00:53:45;;;;;;;;;;;16.30;99.90;;;;;;5151146;27;20372;-87
2023/05/22 00:56:11;;;;;;;;;;;16.20;99.90;;;;;;5141407;27;19931;-86
2023/05/22 00:58:36;;;;;;;;;;;16.20;99.90;;;;;;5150452;27;19927;-86
2023/05/22 01:01:06;;;;;;;;;;;16.20;99.90;;;;;;5149457;27;20135;-87
2023/05/22 01:03:32;;;;;;;;;;;16.20;99.90;;;;;;5144280;27;19929;-87
2023/05/22 01:05:58;;;;;;;;;;;16.20;99.90;;;;;;5114393;27;20254;-88
2023/05/22 01:08:23;;;;;;;;;;;16.20;99.90;;;;;;5150779;27;20432;-87
2023/05/22 01:10:54;;;;;;;;;;;16.10;99.90;;;;;;5121793;27;19972;-87
2023/05/22 01:13:20;;;;;;;;;;;16.10;99.90;;;;;;5123297;27;19923;-87
2023/05/22 01:15:46;;;;;;;;;;;16.10;99.90;;;;;;5147561;27;19931;-87
2023/05/22 01:18:23;;;;;;;;;;;16.10;99.90;;;;;;5133136;27;19946;-87
2023/05/22 01:20:53;;;;;;;;;;;16.10;99.90;;;;;;5129326;27;19931;-87
2023/05/22 01:23:31;;;;;;;;;;;16.10;99.90;;;;;;5144309;27;19952;-88
2023/05/22 01:26:16;;;;;;;;;;;16.10;99.90;;;;;;5128777;27;20407;-87
2023/05/22 01:28:50;;;;;;;;;;;16.00;1.00;;;;;;5119238;27;19992;-86
2023/05/22 01:31:16;;;;;;;;;;;16.10;99.90;;;;;;5143521;27;20019;-87
2023/05/22 01:33:47;;;;;;;;;;;16.00;1.00;;;;;;5127051;27;19981;-86
2023/05/22 01:36:14;;;;;;;;;;;16.00;1.00;;;;;;5139328;27;20018;-87
2023/05/22 01:38:40;;;;;;;;;;;16.00;1.00;;;;;;5143314;27;20045;-88
2023/05/22 01:41:06;;;;;;;;;;;16.00;1.00;;;;;;5120204;27;19967;-87
2023/05/22 01:43:31;;;;;;;;;;;16.00;1.00;;;;;;5149833;27;20452;-87
2023/05/22 01:45:58;;;;;;;;;;;16.00;1.00;;;;;;5128320;27;19942;-87
2023/05/22 01:48:23;;;;;;;;;;;16.00;99.90;;;;;;5132499;27;20011;-87
2023/05/22 01:50:50;;;;;;;;;;;15.90;99.90;;;;;;5117276;27;19972;-87
2023/05/22 01:53:34;;;;;;;;;;;15.90;99.90;;;;;;5137221;27;20159;-87
2023/05/22 01:56:04;;;;;;;;;;;15.90;99.90;;;;;;5138515;27;19947;-86
2023/05/22 01:58:36;;;;;;;;;;;15.90;99.90;;;;;;5125640;27;19971;-87
2023/05/22 02:01:02;;;;;;;;;;;15.90;1.00;;;;;;5139523;27;19927;-87
2023/05/22 02:03:32;;;;;;;;;;;15.90;1.00;;;;;;5105769;27;20011;-87
2023/05/22 02:05:58;;;;;;;;;;;15.90;1.00;;;;;;5115372;27;20039;-87
2023/05/22 02:08:24;;;;;;;;;;;15.90;1.00;;;;;;5118817;27;19934;-86
2023/05/22 02:10:51;;;;;;;;;;;15.90;1.00;;;;;;5140663;27;19923;-86
2023/05/22 02:13:17;;;;;;;;;;;15.90;1.00;;;;;;5131382;27;20376;-87
2023/05/22 02:15:45;;;;;;;;;;;15.80;1.00;;;;;;5138201;27;19932;-87
2023/05/22 02:18:14;;;;;;;;;;;15.90;1.00;;;;;;5147484;27;19962;-87
2023/05/22 02:20:40;;;;;;;;;;;15.90;1.00;;;;;;5122048;27;19934;-87
2023/05/22 02:23:06;;;;;;;;;;;15.90;1.00;;;;;;5140178;27;19927;-87
2023/05/22 02:25:31;;;;;;;;;;;15.80;1.00;;;;;;5125866;27;19949;-87
2023/05/22 02:27:57;;;;;;;;;;;15.90;1.00;;;;;;5131287;27;19923;-88
2023/05/22 02:30:22;;;;;;;;;;;15.80;1.00;;;;;;5148342;27;19923;-88
2023/05/22 02:32:48;;;;;;;;;;;15.90;1.00;;;;;;5115129;27;19956;-88
2023/05/22 02:35:13;;;;;;;;;;;15.80;1.00;;;;;;5126759;27;19930;-87
2023/05/22 02:37:39;;;;;;;;;;;15.80;1.00;;;;;;5133689;27;19981;-86
2023/05/22 02:40:05;;;;;;;;;;;15.80;1.00;;;;;;5127899;27;19923;-86
2023/05/22 02:42:31;;;;;;;;;;;15.90;1.00;;;;;;5115317;27;19934;-87
2023/05/22 02:44:57;;;;;;;;;;;15.80;1.00;;;;;;5132386;27;20360;-87
2023/05/22 02:47:22;;;;;;;;;;;15.80;1.00;;;;;;5104401;27;19923;-86
2023/05/22 02:49:48;;;;;;;;;;;15.80;1.00;;;;;;5144408;27;20771;-86
2023/05/22 02:52:13;;;;;;;;;;;15.80;1.00;;;;;;5119229;28;19932;-86
2023/05/22 02:54:39;;;;;;;;;;;15.80;1.00;;;;;;5129134;27;19924;-86
2023/05/22 02:57:04;;;;;;;;;;;15.80;1.00;;;;;;5135156;27;20287;-86
2023/05/22 02:59:30;;;;;;;;;;;15.80;1.00;;;;;;5144687;27;19923;-86
2023/05/22 03:01:56;;;;;;;;;;;15.80;1.00;;;;;;5118301;27;19953;-86
2023/05/22 03:04:21;;;;;;;;;;;15.70;1.00;;;;;;5143839;27;19948;-87
2023/05/22 03:06:47;;;;;;;;;;;15.70;1.00;;;;;;5132545;27;20014;-86
2023/05/22 03:09:13;;;;;;;;;;;15.80;1.00;;;;;;5112596;27;19937;-87
2023/05/22 03:11:38;;;;;;;;;;;15.80;1.00;;;;;;5150273;27;19926;-86
2023/05/22 03:14:04;;;;;;;;;;;15.80;1.00;;;;;;5134392;27;19923;-87
2023/05/22 03:16:31;;;;;;;;;;;15.70;1.00;;;;;;5135238;27;19962;-86
2023/05/22 03:19:07;;;;;;;;;;;15.70;1.00;;;;;;5131705;27;19930;-86
2023/05/22 03:21:33;;;;;;;;;;;15.80;1.00;;;;;;5150075;27;19923;-87
2023/05/22 03:23:58;;;;;;;;;;;15.70;1.00;;;;;;5105483;27;19952;-86
2023/05/22 03:26:26;;;;;;;;;;;15.70;1.00;;;;;;5125284;27;19929;-86
2023/05/22 03:28:52;;;;;;;;;;;15.70;1.00;;;;;;5133090;27;19976;-86
2023/05/22 03:31:18;;;;;;;;;;;15.80;1.00;;;;;;5152924;27;19923;-86
2023/05/22 03:33:43;;;;;;;;;;;15.70;1.00;;;;;;5138186;27;20282;-86
2023/05/22 03:36:09;;;;;;;;;;;15.80;1.00;;;;;;5174275;27;19927;-86
2023/05/22 03:38:35;;;;;;;;;;;15.80;1.00;;;;;;5152115;27;19958;-86
2023/05/22 03:41:01;;;;;;;;;;;15.70;1.00;;;;;;5133231;27;20350;-86
2023/05/22 03:43:27;;;;;;;;;;;15.80;1.00;;;;;;5150677;27;19962;-87
2023/05/22 03:45:52;;;;;;;;;;;15.80;1.00;;;;;;5152276;27;19922;-87
2023/05/22 03:48:18;;;;;;;;;;;15.80;1.00;;;;;;5128445;27;20430;-86
2023/05/22 03:50:44;;;;;;;;;;;15.80;1.00;;;;;;5154281;27;19927;-87
2023/05/22 03:53:10;;;;;;;;;;;15.80;1.00;;;;;;5120364;27;19929;-86
2023/05/22 03:55:35;;;;;;;;;;;15.80;1.00;;;;;;5139021;27;19926;-86
2023/05/22 03:58:01;;;;;;;;;;;15.80;1.00;;;;;;5129812;27;19951;-86
2023/05/22 04:00:26;;;;;;;;;;;15.80;1.00;;;;;;5135707;27;19927;-87
2023/05/22 04:02:53;;;;;;;;;;;15.80;1.00;;;;;;5123992;27;20009;-86
2023/05/22 04:05:19;;;;;;;;;;;15.80;1.00;;;;;;5132026;27;20374;-86
2023/05/22 04:07:44;;;;;;;;;;;15.90;1.00;;;;;;5141631;27;19929;-86
2023/05/22 04:10:10;;;;;;;;;;;15.90;1.00;;;;;;5154904;27;19973;-85
2023/05/22 04:12:36;;;;;;;;;;;15.90;1.00;;;;;;5131783;27;19931;-86
2023/05/22 04:15:01;;;;;;;;;;;15.90;1.00;;;;;;5139090;27;19965;-85
2023/05/22 04:17:31;;;;;;;;;;;15.90;1.00;;;;;;5134883;27;19923;-86
2023/05/22 04:19:57;;;;;;;;;;;15.90;1.00;;;;;;5149644;27;19927;-86
2023/05/22 04:22:22;;;;;;;;;;;15.90;1.00;;;;;;5125664;27;19931;-86
2023/05/22 04:24:48;;;;;;;;;;;15.90;1.00;;;;;;5128288;27;20618;-86
2023/05/22 04:27:14;;;;;;;;;;;15.90;1.00;;;;;;5120629;27;20022;-85
2023/05/22 04:29:40;;;;;;;;;;;16.00;1.00;;;;;;5137776;27;20013;-85
2023/05/22 04:32:09;;;;;;;;;;;16.00;1.00;;;;;;5139144;27;20427;-86
2023/05/22 04:34:37;;;;;;;;;;;16.00;1.00;;;;;;5152350;27;19923;-84
2023/05/22 04:37:03;;;;;;;;;;;16.00;1.00;;;;;;5135478;27;19922;-85
2023/05/22 04:39:30;;;;;;;;;;;16.10;1.00;;;;;;5119376;27;19934;-85
2023/05/22 04:41:57;;;;;;;;;;;16.10;1.00;;;;;;5143859;27;19923;-85
2023/05/22 04:44:22;;;;;;;;;;;16.10;1.00;;;;;;5148191;27;19938;-85
2023/05/22 04:46:48;;;;;;;;;;;16.10;1.00;;;;;;5124403;27;19930;-85
2023/05/22 04:49:14;;;;;;;;;;;16.10;1.00;;;;;;5149696;27;19926;-85
2023/05/22 04:51:40;;;;;;;;;;;16.10;1.00;;;;;;5149065;27;19923;-82
2023/05/22 04:54:05;;;;;;;;;;;16.20;1.00;;;;;;5151862;27;20379;-83
2023/05/22 04:56:31;;;;;;;;;;;16.30;1.00;;;;;;5150316;27;19938;-83
2023/05/22 04:58:57;;;;;;;;;;;16.30;1.00;;;;;;5151182;27;19923;-82
2023/05/22 05:01:23;;;;;;;;;;;16.40;1.00;;;;;;5151753;27;19923;-81
2023/05/22 05:03:49;;;;;;;;;;;16.40;1.00;;;;;;5151671;27;19935;-82
2023/05/22 05:06:16;;;;;;;;;;;16.50;1.00;;;;;;5149203;27;19923;-86
2023/05/22 05:08:43;;;;;;;;;;;16.50;1.00;;;;;;5150172;27;19933;-82
2023/05/22 05:11:08;;;;;;;;;;;16.60;1.00;;;;;;5151332;27;19931;-82
2023/05/22 05:13:34;;;;;;;;;;;16.60;1.00;;;;;;5160765;27;19990;-81
2023/05/22 05:16:00;;;;;;;;;;;16.70;1.00;;;;;;5149399;27;19922;-81
2023/05/22 05:18:26;;;;;;;;;;;16.70;1.00;;;;;;5153905;27;19934;-81
2023/05/22 05:20:52;;;;;;;;;;;16.70;1.00;;;;;;5171263;27;19923;-82
2023/05/22 05:23:18;;;;;;;;;;;16.70;1.00;;;;;;5153042;27;20387;-81
2023/05/22 05:25:43;;;;;;;;;;;16.70;1.00;;;;;;5151435;27;20034;-82
2023/05/22 05:28:12;;;;;;;;;;;16.70;1.00;;;;;;5128414;27;19926;-82
2023/05/22 05:30:38;;;;;;;;;;;16.70;1.00;;;;;;5130169;27;19923;-81
2023/05/22 05:33:03;;;;;;;;;;;16.70;1.00;;;;;;5153181;27;19927;-81
2023/05/22 05:35:29;;;;;;;;;;;16.70;1.00;;;;;;5152658;27;19926;-82
2023/05/22 05:37:55;;;;;;;;;;;16.70;1.00;;;;;;5137832;27;19923;-81
2023/05/22 05:40:20;;;;;;;;;;;16.60;1.00;;;;;;5171894;27;19983;-80
2023/05/22 05:42:46;;;;;;;;;;;16.70;1.00;;;;;;5145254;27;19937;-81
2023/05/22 05:45:12;;;;;;;;;;;16.70;1.00;;;;;;5150769;27;19957;-81
2023/05/22 05:47:37;;;;;;;;;;;16.70;1.00;;;;;;5142100;27;19933;-81
2023/05/22 05:50:03;;;;;;;;;;;16.70;1.00;;;;;;5148226;27;19926;-84
2023/05/22 05:52:31;;;;;;;;;;;16.70;1.00;;;;;;5164194;27;19935;-81
2023/05/22 05:54:57;;;;;;;;;;;16.70;1.00;;;;;;5132976;27;20009;-81
2023/05/22 05:57:22;;;;;;;;;;;16.70;1.00;;;;;;5170819;27;20018;-80
2023/05/22 05:59:48;;;;;;;;;;;16.70;1.00;;;;;;5168274;27;20287;-80
2023/05/22 06:02:14;;;;;;;;;;;16.80;1.00;;;;;;5144884;27;19923;-80
2023/05/22 06:04:40;;;;;;;;;;;16.80;99.90;;;;;;5149302;27;20066;-80
2023/05/22 06:07:06;;;;;;;;;;;16.80;99.90;;;;;;5163251;27;19954;-80
2023/05/22 06:09:32;;;;;;;;;;;16.80;99.90;;;;;;5146381;27;20400;-80
2023/05/22 06:11:57;;;;;;;;;;;16.80;99.90;;;;;;5143606;27;19971;-80
2023/05/22 06:14:23;;;;;;;;;;;16.90;99.90;;;;;;5122749;27;19930;-80
2023/05/22 06:16:49;;;;;;;;;;;16.80;99.90;;;;;;5136742;27;19927;-80
2023/05/22 06:19:14;;;;;;;;;;;16.80;99.90;;;;;;5169069;27;20368;-80
2023/05/22 06:21:40;;;;;;;;;;;16.80;99.90;;;;;;5143272;27;19927;-80
2023/05/22 06:24:05;;;;;;;;;;;16.80;99.90;;;;;;5150306;27;20299;-80
2023/05/22 06:26:31;;;;;;;;;;;16.80;99.90;;;;;;5142729;27;19934;-80
2023/05/22 06:28:57;;;;;;;;;;;16.80;99.90;;;;;;5171324;27;19975;-80
2023/05/22 06:31:23;;;;;;;;;;;16.80;99.90;;;;;;5136247;27;20007;-81
2023/05/22 06:33:49;;;;;;;;;;;16.80;99.90;;;;;;5151348;27;19935;-80
2023/05/22 06:36:15;;;;;;;;;;;16.80;99.90;;;;;;5125270;27;19923;-79
2023/05/22 06:38:40;;;;;;;;;;;16.80;99.90;;;;;;5139409;27;20509;-80
2023/05/22 06:41:06;;;;;;;;;;;16.90;99.90;;;;;;5144947;27;20026;-79
2023/05/22 06:43:32;;;;;;;;;;;16.90;99.90;;;;;;5135449;27;19923;-80
2023/05/22 06:45:58;;;;;;;;;;;16.90;99.90;;;;;;5144545;27;19934;-80
2023/05/22 06:48:23;;;;;;;;;;;17.00;99.90;;;;;;5148709;27;19934;-81
2023/05/22 06:50:49;;;;;;;;;;;17.00;99.90;;;;;;5144106;27;19964;-80
2023/05/22 06:53:14;;;;;;;;;;;17.10;99.90;;;;;;5130838;27;19962;-80
2023/05/22 06:55:41;;;;;;;;;;;17.10;99.90;;;;;;5152355;27;19926;-80
2023/05/22 06:58:06;;;;;;;;;;;17.20;99.90;;;;;;5154997;27;19941;-81
2023/05/22 07:00:32;;;;;;;;;;;17.20;99.90;;;;;;5148933;27;19927;-80
2023/05/22 07:02:58;;;;;;;;;;;17.20;99.90;;;;;;5170684;27;19926;-82
2023/05/22 07:05:23;;;;;;;;;;;17.20;99.90;;;;;;5149475;27;19980;-80
2023/05/22 07:07:49;;;;;;;;;;;17.30;99.90;;;;;;5156677;27;19934;-80
2023/05/22 07:10:14;;;;;;;;;;;17.30;99.90;;;;;;5119670;27;20015;-79
2023/05/22 07:12:40;;;;;;;;;;;17.30;99.90;;;;;;5134590;27;19930;-80
2023/05/22 07:15:09;;;;;;;;;;;17.30;99.90;;;;;;5157649;27;20025;-80
2023/05/22 07:17:34;;;;;;;;;;;17.40;99.90;;;;;;5138553;27;19922;-80
2023/05/22 07:20:00;;;;;;;;;;;17.40;99.90;;;;;;5157805;27;19930;-81
2023/05/22 07:22:26;;;;;;;;;;;17.50;99.90;;;;;;5154590;27;19963;-80
2023/05/22 07:24:51;;;;;;;;;;;17.60;99.90;;;;;;5145170;27;19923;-80
2023/05/22 07:27:17;;;;;;;;;;;17.70;99.90;;;;;;5138715;27;19940;-80
2023/05/22 07:29:42;;;;;;;;;;;17.80;50.30;;;;;;5114871;27;20498;-80
2023/05/22 07:32:08;;;;;;;;;;;18.00;1.00;;;;;;5149873;27;20532;-81
2023/05/22 07:34:33;;;;;;;;;;;18.10;1.00;;;;;;5118917;27;19976;-80
2023/05/22 07:36:59;;;;;;;;;;;18.20;1.00;;;;;;5149677;27;20320;-80
2023/05/22 07:39:25;;;;;;;;;;;18.40;1.00;;;;;;5131666;27;19931;-80
2023/05/22 07:41:51;;;;;;;;;;;18.50;1.00;;;;;;5131970;27;20479;-80
2023/05/22 07:44:16;;;;;;;;;;;18.60;1.00;;;;;;5119447;27;19975;-81
2023/05/22 07:46:42;;;;;;;;;;;18.70;99.90;;;;;;5150162;27;19934;-81
2023/05/22 07:49:08;;;;;;;;;;;18.70;99.90;;;;;;5156971;27;20017;-80
2023/05/22 07:51:33;;;;;;;;;;;18.70;99.90;;;;;;5174466;27;19927;-81
2023/05/22 07:53:59;;;;;;;;;;;18.60;99.90;;;;;;5148389;27;19930;-80
2023/05/22 07:56:26;;;;;;;;;;;18.50;99.90;;;;;;5151032;27;19971;-81
2023/05/22 07:58:51;;;;;;;;;;;18.40;99.90;;;;;;5113776;27;20027;-81
2023/05/22 08:01:17;;;;;;;;;;;18.40;99.90;;;;;;5150397;27;20035;-81
2023/05/22 08:03:43;;;;;;;;;;;18.30;99.90;;;;;;5156183;27;19989;-81
2023/05/22 08:06:09;;;;;;;;;;;18.30;99.90;;;;;;5156123;27;19927;-80
2023/05/22 08:08:35;;;;;;;;;;;18.20;99.90;;;;;;5138230;27;19973;-81
2023/05/22 08:11:01;;;;;;;;;;;18.20;99.90;;;;;;5154687;27;20009;-80
2023/05/22 08:13:26;;;;;;;;;;;18.10;99.90;;;;;;5156169;27;20075;-80
2023/05/22 08:15:52;;;;;;;;;;;18.10;99.90;;;;;;5153553;27;19923;-80
2023/05/22 08:18:17;;;;;;;;;;;18.00;99.90;;;;;;5143467;27;20017;-80
2023/05/22 08:20:43;;;;;;;;;;;17.90;99.90;;;;;;5154580;27;20664;-81
2023/05/22 08:23:08;;;;;;;;;;;17.80;99.90;;;;;;5156382;27;20291;-81
2023/05/22 08:25:34;;;;;;;;;;;17.80;99.90;;;;;;5155409;27;19923;-80
2023/05/22 08:27:59;;;;;;;;;;;17.70;99.90;;;;;;5155675;27;19939;-81
2023/05/22 08:30:25;;;;;;;;;;;17.60;99.90;;;;;;5124639;27;20059;-80
2023/05/22 08:32:50;;;;;;;;;;;17.50;99.90;;;;;;5142479;27;19934;-80
2023/05/22 08:35:16;;;;;;;;;;;17.50;99.90;;;;;;5116186;27;20026;-81
2023/05/22 08:37:42;;;;;;;;;;;17.50;1.00;;;;;;5130748;27;19967;-80
2023/05/22 08:40:10;;;;;;;;;;;17.50;1.00;;;;;;5146671;27;19927;-80
2023/05/22 08:42:35;;;;;;;;;;;17.40;1.00;;;;;;5155115;27;19929;-80
2023/05/22 08:45:01;;;;;;;;;;;17.40;1.00;;;;;;5151210;27;20006;-81
2023/05/22 08:47:27;;;;;;;;;;;17.40;1.00;;;;;;5152217;27;20043;-80
2023/05/22 08:49:53;;;;;;;;;;;17.40;1.00;;;;;;5151395;27;20013;-80
2023/05/22 08:52:25;;;;;;;;;;;17.40;1.00;;;;;;5153764;27;19927;-80
2023/05/22 08:54:54;;;;;;;;;;;17.40;1.00;;;;;;5151607;27;19967;-80
2023/05/22 08:57:20;;;;;;;;;;;17.40;1.00;;;;;;5144989;27;19962;-80
2023/05/22 08:59:46;;;;;;;;;;;17.50;1.00;;;;;;5165345;27;20006;-80
2023/05/22 09:02:12;;;;;;;;;;;17.50;1.00;;;;;;5148376;27;19923;-80
2023/05/22 09:04:41;;;;;;;;;;;17.50;1.00;;;;;;5147715;27;20416;-80
2023/05/22 09:07:07;;;;;;;;;;;17.50;1.00;;;;;;5127678;27;20021;-80
2023/05/22 09:09:37;;;;;;;;;;;17.50;1.00;;;;;;5146644;27;19980;-80
2023/05/22 09:12:04;;;;;;;;;;;17.60;1.00;;;;;;5152955;27;20087;-80
2023/05/22 09:14:37;;;;;;;;;;;17.70;1.00;;;;;;5173811;27;19927;-80
2023/05/22 09:17:03;;;;;;;;;;;17.80;1.00;;;;;;5135986;27;19923;-80
2023/05/22 09:19:29;;;;;;;;;;;18.00;1.00;;;;;;5136168;27;19927;-81
2023/05/22 09:22:03;;;;;;;;;;;18.20;1.00;;;;;;5125026;27;19923;-80
2023/05/22 09:24:28;;;;;;;;;;;18.40;99.90;;;;;;5147870;27;19927;-81
2023/05/22 09:26:54;;;;;;;;;;;18.60;99.90;;;;;;5153778;27;19983;-80
2023/05/22 09:29:21;;;;;;;;;;;18.80;99.90;;;;;;5143118;27;19923;-80
2023/05/22 09:31:46;;;;;;;;;;;19.00;99.90;;;;;;5146277;27;19985;-82
2023/05/22 09:34:16;;;;;;;;;;;19.10;99.90;;;;;;5139888;27;19998;-80
2023/05/22 09:36:42;;;;;;;;;;;19.30;99.90;;;;;;5154521;27;19975;-81
2023/05/22 09:39:08;;;;;;;;;;;19.50;99.90;;;;;;5153186;27;19934;-80
2023/05/22 09:41:35;;;;;;;;;;;19.70;99.90;;;;;;5137282;27;19934;-80
2023/05/22 09:44:00;;;;;;;;;;;20.00;99.90;;;;;;5153713;27;19923;-81
2023/05/22 09:46:26;;;;;;;;;;;20.20;99.90;;;;;;5154775;27;20639;-80
2023/05/22 09:48:52;;;;;;;;;;;20.40;99.90;;;;;;5171235;27;19968;-80
2023/05/22 09:51:20;;;;;;;;;;;20.60;99.90;;;;;;5173216;27;19926;-80
2023/05/22 09:53:47;;;;;;;;;;;21.20;99.90;;;;;;5153176;27;20302;-80
2023/05/22 09:56:13;;;;;;;;;;;22.00;99.90;;;;;;5154460;27;19922;-81
2023/05/22 09:58:42;;;;;;;;;;;23.10;96.90;;;;;;5153921;27;20017;-81
2023/05/22 10:01:09;;;;;;;;;;;24.30;6.30;;;;;;5152085;27;19949;-81
2023/05/22 10:03:37;;;;;;;;;;;25.50;1.00;;;;;;5147444;27;20078;-81
2023/05/22 10:06:03;;;;;;;;;;;26.40;1.00;;;;;;5147399;27;19976;-81
2023/05/22 10:08:33;;;;;;;;;;;26.90;1.00;;;;;;5172621;27;19927;-80
2023/05/22 10:10:58;;;;;;;;;;;27.10;1.00;;;;;;5152637;27;19933;-80
2023/05/22 10:13:25;;;;;;;;;;;27.30;1.00;;;;;;5136883;27;19922;-81
2023/05/22 10:15:50;;;;;;;;;;;27.70;1.00;;;;;;5135860;27;19923;-82
2023/05/22 10:18:17;;;;;;;;;;;28.40;1.00;;;;;;5171829;27;20290;-82
2023/05/22 10:20:43;;;;;;;;;;;28.70;1.00;;;;;;5135857;27;19974;-81
2023/05/22 10:23:09;;;;;;;;;;;29.10;1.00;;;;;;5152932;27;19933;-81
2023/05/22 10:25:38;;;;;;;;;;;29.40;1.00;;;;;;5171656;27;19923;-81
2023/05/22 10:28:04;;;;;;;;;;;29.50;1.00;;;;;;5153554;27;20317;-82
2023/05/22 10:30:33;;;;;;;;;;;29.80;1.00;;;;;;5152270;27;19923;-81
2023/05/22 10:33:06;;;;;;;;;;;30.40;1.00;;;;;;5135978;27;19931;-81
2023/05/22 10:35:42;;;;;;;;;;;30.90;1.00;;;;;;5139659;27;19934;-81
2023/05/22 10:38:16;;;;;;;;;;;31.10;1.00;;;;;;5125072;27;20015;-81
2023/05/22 10:40:44;;;;;;;;;;;31.20;1.00;;;;;;5152417;27;20369;-81
2023/05/22 10:43:10;;;;;;;;;;;31.40;1.00;;;;;;5153286;27;20009;-80
2023/05/22 10:45:35;;;;;;;;;;;31.60;1.00;;;;;;5153141;27;20063;-80
2023/05/22 10:48:08;;;;;;;;;;;31.90;1.00;;;;;;5153297;27;19926;-81
2023/05/22 10:50:37;;;;;;;;;;;32.00;1.00;;;;;;5139052;27;19972;-81
2023/05/22 10:53:21;;;;;;;;;;;32.30;1.00;;;;;;5134927;27;19933;-81
2023/05/22 10:55:47;;;;;;;;;;;32.40;1.00;;;;;;5153413;27;20431;-81
2023/05/22 10:58:13;;;;;;;;;;;32.40;1.00;;;;;;5152174;27;19981;-81
2023/05/22 11:00:38;;;;;;;;;;;32.40;1.00;;;;;;5153328;27;19927;-81
2023/05/22 11:03:08;;;;;;;;;;;32.70;1.00;;;;;;5149567;27;19931;-80
2023/05/22 11:05:35;;;;;;;;;;;33.00;1.00;;;;;;5115912;27;19934;-81
2023/05/22 11:08:10;;;;;;;;;;;33.20;1.00;;;;;;5135552;27;19926;-80
2023/05/22 11:10:51;;;;;;;;;;;33.40;1.00;;;;;;5153435;27;20629;-80
2023/05/22 11:13:17;;;;;;;;;;;33.30;1.00;;;;;;5139616;27;20602;-80
2023/05/22 11:15:45;;;;;;;;;;;33.30;1.00;;;;;;5138753;27;20029;-83
2023/05/22 11:18:13;;;;;;;;;;;32.70;1.00;;;;;;5135735;27;20363;-80
2023/05/22 11:20:38;;;;;;;;;;;32.20;1.00;;;;;;5171512;27;19927;-81
2023/05/22 11:23:05;;;;;;;;;;;32.40;1.00;;;;;;5163541;27;19949;-81
2023/05/22 11:25:36;;;;;;;;;;;32.90;1.00;;;;;;5147334;27;19949;-82
2023/05/22 11:28:02;;;;;;;;;;;33.60;1.00;;;;;;5152259;27;19934;-81
2023/05/22 11:30:29;;;;;;;;;;;34.00;1.00;;;;;;5151650;27;20391;-81
2023/05/22 11:32:56;;;;;;;;;;;34.20;1.00;;;;;;5153185;27;19990;-81
2023/05/22 11:35:22;;;;;;;;;;;34.30;1.00;;;;;;5152161;27;19922;-81
2023/05/22 11:37:48;;;;;;;;;;;34.60;1.00;;;;;;5153458;27;19927;-81
2023/05/22 11:40:15;;;;;;;;;;;34.70;1.00;;;;;;5170227;27;19979;-81
2023/05/22 11:42:41;;;;;;;;;;;34.90;1.00;;;;;;5135361;27;19923;-81
2023/05/22 11:45:06;;;;;;;;;;;35.20;1.00;;;;;;5123884;27;19961;-80
2023/05/22 11:47:32;;;;;;;;;;;35.70;1.00;;;;;;5156457;27;19970;-81
2023/05/22 11:50:01;;;;;;;;;;;36.20;1.00;;;;;;5156616;27;19926;-81
2023/05/22 11:52:33;;;;;;;;;;;36.50;1.00;;;;;;5174744;27;19927;-81
2023/05/22 11:54:59;;;;;;;;;;;36.60;1.00;;;;;;5156186;27;19927;-81
2023/05/22 11:57:25;;;;;;;;;;;36.80;1.00;;;;;;5156300;27;19934;-81
2023/05/22 11:59:50;;;;;;;;;;;37.10;1.00;;;;;;5125005;27;19970;-81
2023/05/22 12:02:16;;;;;;;;;;;37.30;1.00;;;;;;5164765;27;19930;-81
2023/05/22 12:04:42;;;;;;;;;;;37.30;1.00;;;;;;5167968;27;19923;-81
2023/05/22 12:07:08;;;;;;;;;;;37.40;1.00;;;;;;5145601;27;19940;-82
2023/05/22 12:09:33;;;;;;;;;;;37.60;1.00;;;;;;5160260;27;19927;-81
2023/05/22 12:11:59;;;;;;;;;;;37.80;1.00;;;;;;5138935;27;19972;-81
2023/05/22 12:14:30;;;;;;;;;;;37.90;1.00;;;;;;5154374;27;20106;-81
2023/05/22 12:16:58;;;;;;;;;;;38.20;1.00;;;;;;5139349;27;19987;-81
2023/05/22 12:19:25;;;;;;;;;;;38.30;1.00;;;;;;5124701;27;20422;-81
2023/05/22 12:21:51;;;;;;;;;;;38.20;1.00;;;;;;5174691;27;19942;-82
2023/05/22 12:24:22;;;;;;;;;;;37.80;1.00;;;;;;5173846;27;20310;-82
2023/05/22 12:26:54;;;;;;;;;;;37.80;1.00;;;;;;5156296;27;19927;-82
2023/05/22 12:29:23;;;;;;;;;;;38.00;1.00;;;;;;5150812;27;19923;-81
2023/05/22 12:31:49;;;;;;;;;;;38.20;1.00;;;;;;5131366;27;19927;-82
2023/05/22 12:34:17;;;;;;;;;;;38.50;1.00;;;;;;5118589;27;19929;-81
2023/05/22 12:36:44;;;;;;;;;;;38.70;1.00;;;;;;5148725;27;20329;-81
2023/05/22 12:39:12;;;;;;;;;;;38.70;1.00;;;;;;5134992;27;20291;-83
2023/05/22 12:41:38;;;;;;;;;;;38.80;1.00;;;;;;5166522;27;19952;-82
2023/05/22 12:44:04;;;;;;;;;;;39.10;1.00;;;;;;5154697;27;19927;-81
2023/05/22 12:46:30;;;;;;;;;;;39.20;1.00;;;;;;5174078;27;19918;-82
2023/05/22 12:48:56;;;;;;;;;;;39.40;1.00;;;;;;5137756;27;19927;-81
2023/05/22 12:51:23;;;;;;;;;;;39.70;1.00;;;;;;5155216;27;19923;-82
2023/05/22 12:53:48;;;;;;;;;;;39.60;1.00;;;;;;5138171;27;19926;-81
2023/05/22 12:56:14;;;;;;;;;;;39.00;1.00;;;;;;5141653;27;19927;-81
2023/05/22 12:58:40;;;;;;;;;;;37.60;1.00;;;;;;5117315;27;19923;-82
2023/05/22 13:01:05;;;;;;;;;;;35.80;1.00;;;;;;5131108;27;20382;-81
2023/05/22 13:03:31;;;;;;;;;;;34.20;1.00;;;;;;5154087;27;19951;-81
2023/05/22 13:05:56;;;;;;;;;;;32.90;1.00;;;;;;5141870;27;19933;-81
2023/05/22 13:08:23;;;;;;;;;;;31.70;1.00;;;;;;5136741;27;19944;-81
2023/05/22 13:10:48;;;;;;;;;;;30.60;1.00;;;;;;5155271;27;19981;-81
2023/05/22 13:13:14;;;;;;;;;;;29.70;1.00;;;;;;5154250;27;19976;-82
2023/05/22 13:15:39;;;;;;;;;;;29.10;1.00;;;;;;5155262;27;19930;-81
2023/05/22 13:18:05;;;;;;;;;;;28.80;1.00;;;;;;5154913;27;20355;-81
2023/05/22 13:20:30;;;;;;;;;;;28.50;1.00;;;;;;5154737;27;19941;-81
2023/05/22 13:22:56;;;;;;;;;;;28.10;1.00;;;;;;5119931;27;19930;-81
2023/05/22 13:25:21;;;;;;;;;;;27.80;1.00;;;;;;5136974;27;20380;-82
2023/05/22 13:27:48;;;;;;;;;;;27.80;1.00;;;;;;5140270;27;19929;-81
2023/05/22 13:30:14;;;;;;;;;;;27.50;1.00;;;;;;5159985;27;19992;-82
2023/05/22 13:32:39;;;;;;;;;;;27.30;1.00;;;;;;5136244;27;20383;-81
2023/05/22 13:35:05;;;;;;;;;;;27.10;1.00;;;;;;5173848;27;19930;-81
2023/05/22 13:37:31;;;;;;;;;;;27.10;1.00;;;;;;5136495;27;19978;-81
2023/05/22 13:39:56;;;;;;;;;;;27.40;1.00;;;;;;5154445;27;19926;-81
2023/05/22 13:42:22;;;;;;;;;;;27.60;1.00;;;;;;5147604;27;19923;-81
2023/05/22 13:44:47;;;;;;;;;;;28.30;1.00;;;;;;5165040;27;19949;-81
2023/05/22 13:47:13;;;;;;;;;;;29.20;1.00;;;;;;5172595;27;19935;-81
2023/05/22 13:49:38;;;;;;;;;;;30.40;1.00;;;;;;5137051;27;20032;-81
2023/05/22 13:52:04;;;;;;;;;;;31.70;1.00;;;;;;5158603;27;19930;-82
2023/05/22 13:54:30;;;;;;;;;;;32.30;1.00;;;;;;5136568;27;19926;-82
2023/05/22 13:56:56;;;;;;;;;;;32.50;1.00;;;;;;5153428;27;19931;-81
2023/05/22 13:59:22;;;;;;;;;;;32.90;1.00;;;;;;5153792;27;19923;-82
2023/05/22 14:01:48;;;;;;;;;;;32.00;1.00;;;;;;5149964;27;19927;-81
2023/05/22 14:04:14;;;;;;;;;;;30.80;1.00;;;;;;5133784;27;19952;-81
2023/05/22 14:06:39;;;;;;;;;;;29.40;1.00;;;;;;5149125;27;19926;-82
2023/05/22 14:09:06;;;;;;;;;;;28.10;1.00;;;;;;5139682;27;20453;-82
2023/05/22 14:11:32;;;;;;;;;;;27.10;1.00;;;;;;5130987;27;20387;-81
2023/05/22 14:13:57;;;;;;;;;;;26.50;1.00;;;;;;5138627;27;19928;-81
2023/05/22 14:16:23;;;;;;;;;;;26.10;1.00;;;;;;5148636;27;19933;-81
2023/05/22 14:18:49;;;;;;;;;;;25.70;1.00;;;;;;5150896;27;20061;-81
2023/05/22 14:21:14;;;;;;;;;;;25.90;1.00;;;;;;5136388;27;19922;-82